createdAt,value
2019-05-27T00:00:55.641Z,0
2019-05-27T00:01:55.852Z,0
2019-05-27T00:02:55.894Z,0
2019-05-27T00:03:57.977Z,0
2019-05-27T00:04:55.846Z,0
2019-05-27T00:05:56.155Z,0
2019-05-27T00:06:55.843Z,0
2019-05-27T00:07:55.827Z,0
2019-05-27T00:08:57.517Z,0
2019-05-27T00:09:59.112Z,0
2019-05-27T00:10:55.571Z,0
2019-05-27T00:11:55.593Z,0
2019-05-27T00:12:55.938Z,0
2019-05-27T00:13:56.059Z,0
2019-05-27T00:14:56.354Z,0
2019-05-27T00:15:56.325Z,0
2019-05-27T00:16:55.888Z,0
2019-05-27T00:17:55.474Z,0
2019-05-27T00:18:55.619Z,0
2019-05-27T00:20:02.186Z,0
2019-05-27T00:20:58.856Z,0
2019-05-27T00:21:56.342Z,0
2019-05-27T00:22:56.095Z,0
2019-05-27T00:23:55.765Z,0
2019-05-27T00:24:55.725Z,0
2019-05-27T00:25:56.006Z,0
2019-05-27T00:26:56.013Z,0
2019-05-27T00:27:56.011Z,0
2019-05-27T00:28:55.747Z,0
2019-05-27T00:29:56.887Z,0
2019-05-27T00:30:59.031Z,0
2019-05-27T00:31:57.595Z,0
2019-05-27T00:32:56.013Z,0
2019-05-27T00:33:55.770Z,0
2019-05-27T00:34:56.006Z,0
2019-05-27T00:35:56.013Z,0
2019-05-27T00:36:55.736Z,0
2019-05-27T00:37:56.235Z,0
2019-05-27T00:38:55.493Z,0
2019-05-27T00:39:56.297Z,0
2019-05-27T00:40:55.737Z,0
2019-05-27T00:41:57.177Z,0
2019-05-27T00:42:55.250Z,0
2019-05-27T00:43:55.484Z,0
2019-05-27T00:44:55.733Z,0
2019-05-27T00:45:56.028Z,0
2019-05-27T00:46:55.458Z,0
2019-05-27T00:47:55.482Z,0
2019-05-27T00:48:56.216Z,0
2019-05-27T00:49:55.970Z,0
2019-05-27T00:50:56.208Z,0
2019-05-27T00:51:57.145Z,0
2019-05-27T00:52:58.777Z,0
2019-05-27T00:53:55.974Z,0
2019-05-27T00:54:55.962Z,0
2019-05-27T00:55:55.969Z,0
2019-05-27T00:56:55.936Z,0
2019-05-27T00:57:55.696Z,0
2019-05-27T00:58:56.170Z,0
2019-05-27T00:59:55.927Z,0
2019-05-27T01:00:56.275Z,0
2019-05-27T01:01:55.441Z,0
2019-05-27T01:03:01.728Z,0
2019-05-27T01:03:59.283Z,0
2019-05-27T01:04:56.058Z,0
2019-05-27T01:05:55.921Z,0
2019-05-27T01:06:55.722Z,0
2019-05-27T01:07:55.957Z,0
2019-05-27T01:08:55.913Z,0
2019-05-27T01:09:55.664Z,0
2019-05-27T01:10:55.923Z,0
2019-05-27T01:11:56.232Z,0
2019-05-27T01:12:55.676Z,0
2019-05-27T01:13:58.945Z,0
2019-05-27T01:14:57.748Z,0
2019-05-27T01:15:55.671Z,0
2019-05-27T01:16:55.903Z,0
2019-05-27T01:17:55.663Z,0
2019-05-27T01:18:55.898Z,0
2019-05-27T01:19:55.659Z,0
2019-05-27T01:20:55.913Z,0
2019-05-27T01:21:56.148Z,0
2019-05-27T01:22:55.673Z,0
2019-05-27T01:23:55.590Z,0
2019-05-27T01:24:58.922Z,0
2019-05-27T01:25:59.161Z,0
2019-05-27T01:26:55.870Z,0
2019-05-27T01:27:55.898Z,0
2019-05-27T01:28:55.633Z,0
2019-05-27T01:29:55.643Z,0
2019-05-27T01:30:55.631Z,0
2019-05-27T01:31:55.913Z,0
2019-05-27T01:32:55.385Z,0
2019-05-27T01:33:55.930Z,0
2019-05-27T01:34:58.739Z,0
2019-05-27T01:35:58.901Z,0
2019-05-27T01:36:55.363Z,0
2019-05-27T01:37:55.649Z,0
2019-05-27T01:38:55.875Z,0
2019-05-27T01:39:58.864Z,0
2019-05-27T01:40:55.593Z,0
2019-05-27T01:41:55.613Z,0
2019-05-27T01:42:55.938Z,0
2019-05-27T01:43:55.817Z,0
2019-05-27T01:44:55.583Z,0
2019-05-27T01:46:02.096Z,0
2019-05-27T01:46:58.861Z,0
2019-05-27T01:47:55.589Z,0
2019-05-27T01:48:55.328Z,0
2019-05-27T01:49:55.561Z,0
2019-05-27T01:50:55.061Z,0
2019-05-27T01:51:55.845Z,0
2019-05-27T01:52:55.811Z,0
2019-05-27T01:53:55.304Z,0
2019-05-27T01:54:55.542Z,0
2019-05-27T01:55:55.533Z,0
2019-05-27T01:56:58.362Z,0
2019-05-27T01:57:58.620Z,0
2019-05-27T01:58:55.525Z,0
2019-05-27T01:59:56.030Z,0
2019-05-27T02:00:57.141Z,0
2019-05-27T02:01:55.857Z,0
2019-05-27T02:02:55.538Z,0
2019-05-27T02:03:55.828Z,0
2019-05-27T02:04:55.670Z,0
2019-05-27T02:05:55.341Z,0
2019-05-27T02:06:56.435Z,0
2019-05-27T02:07:58.799Z,0
2019-05-27T02:08:55.258Z,0
2019-05-27T02:09:55.799Z,0
2019-05-27T02:10:55.257Z,0
2019-05-27T02:11:55.242Z,0
2019-05-27T02:12:55.887Z,0
2019-05-27T02:13:55.495Z,0
2019-05-27T02:14:55.693Z,0
2019-05-27T02:15:55.789Z,0
2019-05-27T02:16:54.990Z,0
2019-05-27T02:17:58.633Z,0
2019-05-27T02:18:58.501Z,0
2019-05-27T02:19:55.725Z,0
2019-05-27T02:20:55.486Z,0
2019-05-27T02:21:56.007Z,0
2019-05-27T02:22:55.468Z,0
2019-05-27T02:23:55.712Z,0
2019-05-27T02:24:55.508Z,0
2019-05-27T02:25:55.974Z,0
2019-05-27T02:26:55.458Z,0
2019-05-27T02:27:55.458Z,0
2019-05-27T02:28:58.235Z,0
2019-05-27T02:29:58.725Z,0
2019-05-27T02:30:55.971Z,0
2019-05-27T02:31:55.952Z,0
2019-05-27T02:32:55.488Z,0
2019-05-27T02:33:55.452Z,0
2019-05-27T02:34:55.229Z,0
2019-05-27T02:35:55.693Z,0
2019-05-27T02:36:55.706Z,0
2019-05-27T02:37:55.716Z,0
2019-05-27T02:38:55.958Z,0
2019-05-27T02:39:58.718Z,0
2019-05-27T02:40:58.357Z,0
2019-05-27T02:41:55.961Z,0
2019-05-27T02:42:55.960Z,0
2019-05-27T02:43:55.689Z,0
2019-05-27T02:44:55.720Z,0
2019-05-27T02:45:55.956Z,0
2019-05-27T02:46:55.733Z,0
2019-05-27T02:47:54.980Z,0
2019-05-27T02:48:55.992Z,0
2019-05-27T02:49:56.826Z,0
2019-05-27T02:50:58.190Z,0
2019-05-27T02:51:55.904Z,0
2019-05-27T02:52:55.636Z,0
2019-05-27T02:53:55.426Z,0
2019-05-27T02:54:55.644Z,0
2019-05-27T02:55:55.395Z,0
2019-05-27T02:56:55.361Z,0
2019-05-27T02:57:55.625Z,0
2019-05-27T02:58:55.617Z,0
2019-05-27T02:59:55.643Z,0
2019-05-27T03:00:58.624Z,0
2019-05-27T03:01:59.351Z,0
2019-05-27T03:02:55.659Z,0
2019-05-27T03:03:55.907Z,0
2019-05-27T03:04:55.866Z,0
2019-05-27T03:05:55.585Z,0
2019-05-27T03:06:59.617Z,0
2019-05-27T03:07:55.330Z,0
2019-05-27T03:08:55.691Z,0
2019-05-27T03:09:55.823Z,0
2019-05-27T03:10:55.356Z,0
2019-05-27T03:12:00.126Z,0
2019-05-27T03:12:58.858Z,0
2019-05-27T03:13:55.588Z,0
2019-05-27T03:14:55.818Z,0
2019-05-27T03:15:55.809Z,0
2019-05-27T03:17:00.914Z,0
2019-05-27T03:17:55.618Z,0
2019-05-27T03:18:55.548Z,0
2019-05-27T03:19:55.547Z,0
2019-05-27T03:20:55.773Z,0
2019-05-27T03:21:55.525Z,0
2019-05-27T03:23:01.783Z,0
2019-05-27T03:23:58.814Z,5
2019-05-27T03:24:55.778Z,5
2019-05-27T03:25:55.781Z,5
2019-05-27T03:26:55.521Z,5
2019-05-27T03:27:55.550Z,5
2019-05-27T03:28:55.252Z,5
2019-05-27T03:29:55.751Z,5
2019-05-27T03:30:55.356Z,5
2019-05-27T03:31:55.623Z,10
2019-05-27T03:32:56.742Z,10
2019-05-27T03:33:58.793Z,10
2019-05-27T03:34:55.593Z,10
2019-05-27T03:35:55.755Z,15
2019-05-27T03:36:55.491Z,15
2019-05-27T03:37:55.072Z,15
2019-05-27T03:38:58.995Z,15
2019-05-27T03:39:55.738Z,20
2019-05-27T03:40:55.234Z,20
2019-05-27T03:41:55.463Z,20
2019-05-27T03:42:55.718Z,25
2019-05-27T03:43:58.731Z,25
2019-05-27T03:44:58.271Z,25
2019-05-27T03:45:55.214Z,25
2019-05-27T03:46:55.720Z,30
2019-05-27T03:47:59.744Z,30
2019-05-27T03:48:55.693Z,30
2019-05-27T03:49:55.220Z,30
2019-05-27T03:50:55.718Z,30
2019-05-27T03:51:55.442Z,30
2019-05-27T03:52:55.289Z,35
2019-05-27T03:53:55.166Z,35
2019-05-27T03:54:58.456Z,40
2019-05-27T03:55:56.589Z,40
2019-05-27T03:56:55.670Z,45
2019-05-27T03:57:55.534Z,45
2019-05-27T03:58:55.683Z,50
2019-05-27T03:59:55.440Z,50
2019-05-27T04:00:55.205Z,60
2019-05-27T04:01:56.007Z,60
2019-05-27T04:02:59.282Z,70
2019-05-27T04:03:55.135Z,70
2019-05-27T04:04:55.696Z,70
2019-05-27T04:05:56.803Z,75
2019-05-27T04:06:58.189Z,75
2019-05-27T04:07:54.658Z,75
2019-05-27T04:08:55.442Z,75
2019-05-27T04:09:55.625Z,80
2019-05-27T04:10:55.542Z,85
2019-05-27T04:11:55.413Z,95
2019-05-27T04:12:54.913Z,90
2019-05-27T04:13:55.404Z,90
2019-05-27T04:14:55.652Z,90
2019-05-27T04:15:56.547Z,95
2019-05-27T04:16:58.156Z,95
2019-05-27T04:17:55.329Z,100
2019-05-27T04:18:55.391Z,100
2019-05-27T04:19:55.357Z,105
2019-05-27T04:20:55.382Z,125
2019-05-27T04:21:55.625Z,135
2019-05-27T04:22:55.396Z,145
2019-05-27T04:24:00.531Z,145
2019-05-27T04:24:55.590Z,135
2019-05-27T04:25:55.109Z,140
2019-05-27T04:26:58.404Z,145
2019-05-27T04:27:58.384Z,145
2019-05-27T04:29:02.300Z,125
2019-05-27T04:29:55.352Z,120
2019-05-27T04:30:55.612Z,125
2019-05-27T04:31:55.115Z,140
2019-05-27T04:32:55.656Z,145
2019-05-27T04:33:55.074Z,145
2019-05-27T04:34:54.844Z,145
2019-05-27T04:35:55.593Z,135
2019-05-27T04:36:55.344Z,130
2019-05-27T04:37:57.485Z,125
2019-05-27T04:38:56.843Z,125
2019-05-27T04:39:55.337Z,125
2019-05-27T04:40:55.362Z,130
2019-05-27T04:41:55.349Z,130
2019-05-27T04:42:54.835Z,135
2019-05-27T04:43:55.602Z,100
2019-05-27T04:44:55.591Z,100
2019-05-27T04:45:55.693Z,105
2019-05-27T04:46:55.574Z,105
2019-05-27T04:47:57.523Z,105
2019-05-27T04:48:58.372Z,105
2019-05-27T04:49:58.602Z,110
2019-05-27T04:50:55.360Z,110
2019-05-27T04:51:54.809Z,115
2019-05-27T04:52:55.342Z,120
2019-05-27T04:53:55.545Z,160
2019-05-27T04:54:54.850Z,115
2019-05-27T04:55:59.264Z,125
2019-05-27T04:56:55.330Z,130
2019-05-27T04:57:54.838Z,130
2019-05-27T04:58:57.856Z,135
2019-05-27T04:59:58.607Z,135
2019-05-27T05:00:55.618Z,135
2019-05-27T05:01:55.571Z,145
2019-05-27T05:02:55.005Z,165
2019-05-27T05:03:55.562Z,205
2019-05-27T05:04:55.302Z,150
2019-05-27T05:05:55.308Z,145
2019-05-27T05:06:55.549Z,150
2019-05-27T05:07:55.142Z,150
2019-05-27T05:08:54.787Z,150
2019-05-27T05:10:01.829Z,150
2019-05-27T05:10:58.416Z,155
2019-05-27T05:11:55.295Z,160
2019-05-27T05:12:55.069Z,160
2019-05-27T05:13:57.931Z,165
2019-05-27T05:14:55.756Z,165
2019-05-27T05:15:55.554Z,170
2019-05-27T05:16:55.804Z,175
2019-05-27T05:17:55.021Z,175
2019-05-27T05:19:10.761Z,175
2019-05-27T05:19:55.012Z,270
2019-05-27T05:20:58.635Z,175
2019-05-27T05:21:58.318Z,175
2019-05-27T05:22:54.774Z,175
2019-05-27T05:23:55.618Z,175
2019-05-27T05:24:55.520Z,170
2019-05-27T05:25:55.520Z,165
2019-05-27T05:26:55.284Z,160
2019-05-27T05:27:54.768Z,160
2019-05-27T05:28:55.330Z,160
2019-05-27T05:29:55.272Z,165
2019-05-27T05:30:55.201Z,175
2019-05-27T05:32:00.684Z,185
2019-05-27T05:33:00.228Z,190
2019-05-27T05:33:55.246Z,195
2019-05-27T05:34:55.608Z,285
2019-05-27T05:35:54.755Z,305
2019-05-27T05:36:55.553Z,210
2019-05-27T05:37:55.319Z,215
2019-05-27T05:38:55.525Z,220
2019-05-27T05:39:56.825Z,220
2019-05-27T05:40:55.259Z,220
2019-05-27T05:41:58.527Z,220
2019-05-27T05:43:01.617Z,220
2019-05-27T05:43:55.012Z,370
2019-05-27T05:44:55.501Z,215
2019-05-27T05:45:55.013Z,220
2019-05-27T05:46:55.007Z,215
2019-05-27T05:47:55.275Z,215
2019-05-27T05:48:55.442Z,215
2019-05-27T05:49:55.007Z,220
2019-05-27T05:50:55.533Z,220
2019-05-27T05:51:54.770Z,225
2019-05-27T05:53:03.623Z,235
2019-05-27T05:53:58.552Z,240
2019-05-27T05:54:55.530Z,250
2019-05-27T05:55:58.538Z,255
2019-05-27T05:56:55.093Z,280
2019-05-27T05:57:55.309Z,310
2019-05-27T05:58:55.984Z,310
2019-05-27T05:59:55.275Z,295
2019-05-27T06:00:55.275Z,315
2019-05-27T06:01:55.266Z,345
2019-05-27T06:02:55.289Z,335
2019-05-27T06:03:59.425Z,350
2019-05-27T06:04:57.555Z,295
2019-05-27T06:05:55.511Z,345
2019-05-27T06:06:54.799Z,325
2019-05-27T06:07:54.831Z,330
2019-05-27T06:08:55.535Z,340
2019-05-27T06:09:55.016Z,345
2019-05-27T06:10:55.045Z,340
2019-05-27T06:11:55.027Z,330
2019-05-27T06:12:54.789Z,320
2019-05-27T06:13:55.645Z,330
2019-05-27T06:14:58.329Z,345
2019-05-27T06:15:58.936Z,365
2019-05-27T06:16:55.151Z,370
2019-05-27T06:17:55.046Z,335
2019-05-27T06:18:55.384Z,310
2019-05-27T06:19:57.957Z,285
2019-05-27T06:20:55.054Z,290
2019-05-27T06:21:55.349Z,320
2019-05-27T06:22:54.675Z,370
2019-05-27T06:23:55.320Z,385
2019-05-27T06:24:58.547Z,380
2019-05-27T06:25:56.668Z,390
2019-05-27T06:26:55.331Z,415
2019-05-27T06:27:54.847Z,395
2019-05-27T06:28:55.112Z,390
2019-05-27T06:29:55.347Z,325
2019-05-27T06:30:55.616Z,350
2019-05-27T06:31:55.095Z,380
2019-05-27T06:32:54.894Z,375
2019-05-27T06:33:55.134Z,360
2019-05-27T06:34:55.444Z,355
2019-05-27T06:35:58.181Z,355
2019-05-27T06:37:03.627Z,355
2019-05-27T06:37:54.870Z,360
2019-05-27T06:39:13.337Z,345
2019-05-27T06:39:54.643Z,375
2019-05-27T06:41:16.298Z,375
2019-05-27T06:41:55.138Z,355
2019-05-27T06:42:55.434Z,345
2019-05-27T06:43:55.423Z,345
2019-05-27T06:44:55.410Z,335
2019-05-27T06:45:55.675Z,345
2019-05-27T06:46:59.287Z,340
2019-05-27T06:47:58.453Z,335
2019-05-27T06:48:55.472Z,375
2019-05-27T06:50:19.601Z,350
2019-05-27T06:50:55.689Z,335
2019-05-27T06:51:55.704Z,315
2019-05-27T06:52:56.826Z,345
2019-05-27T06:53:55.032Z,365
2019-05-27T06:54:55.444Z,360
2019-05-27T06:55:56.806Z,335
2019-05-27T06:56:55.824Z,335
2019-05-27T06:57:58.029Z,340
2019-05-27T06:58:55.464Z,340
2019-05-27T06:59:55.462Z,335
2019-05-27T07:00:55.520Z,340
2019-05-27T07:01:55.829Z,345
2019-05-27T07:02:55.526Z,345
2019-05-27T07:03:55.510Z,325
2019-05-27T07:04:56.465Z,345
2019-05-27T07:05:55.775Z,325
2019-05-27T07:06:55.500Z,330
2019-05-27T07:07:58.792Z,340
2019-05-27T07:08:57.125Z,350
2019-05-27T07:09:55.829Z,360
2019-05-27T07:10:55.711Z,380
2019-05-27T07:11:55.356Z,360
2019-05-27T07:12:59.132Z,390
2019-05-27T07:13:55.741Z,380
2019-05-27T07:14:55.644Z,390
2019-05-27T07:16:10.245Z,385
2019-05-27T07:16:55.570Z,315
2019-05-27T07:17:55.414Z,335
2019-05-27T07:18:56.535Z,340
2019-05-27T07:19:59.046Z,325
2019-05-27T07:20:55.397Z,315
2019-05-27T07:21:55.858Z,335
2019-05-27T07:22:55.099Z,360
2019-05-27T07:23:55.393Z,350
2019-05-27T07:24:55.851Z,355
2019-05-27T07:25:58.076Z,370
2019-05-27T07:26:55.387Z,370
2019-05-27T07:27:55.721Z,365
2019-05-27T07:28:55.390Z,375
2019-05-27T07:29:57.954Z,365
2019-05-27T07:31:14.192Z,385
2019-05-27T07:31:59.742Z,380
2019-05-27T07:32:55.405Z,365
2019-05-27T07:33:55.816Z,370
2019-05-27T07:34:56.087Z,365
2019-05-27T07:35:55.487Z,365
2019-05-27T07:36:55.941Z,380
2019-05-27T07:37:54.969Z,375
2019-05-27T07:38:55.693Z,385
2019-05-27T07:39:56.549Z,385
2019-05-27T07:40:58.494Z,390
2019-05-27T07:42:02.065Z,385
2019-05-27T07:42:55.513Z,385
2019-05-27T07:43:55.721Z,385
2019-05-27T07:44:56.299Z,385
2019-05-27T07:45:55.729Z,380
2019-05-27T07:47:00.701Z,380
2019-05-27T07:47:55.495Z,385
2019-05-27T07:48:55.489Z,400
2019-05-27T07:49:59.420Z,400
2019-05-27T07:51:00.370Z,385
2019-05-27T07:51:57.103Z,395
2019-05-27T07:52:56.028Z,365
2019-05-27T07:53:55.799Z,355
2019-05-27T07:55:04.089Z,350
2019-05-27T07:55:59.065Z,395
2019-05-27T07:56:55.561Z,395
2019-05-27T07:57:55.063Z,395
2019-05-27T07:58:55.804Z,405
2019-05-27T07:59:55.880Z,410
2019-05-27T08:00:55.822Z,420
2019-05-27T08:02:49.805Z,420
2019-05-27T08:03:02.531Z,410
2019-05-27T08:04:05.537Z,260
2019-05-27T08:04:59.266Z,300
2019-05-27T08:05:59.246Z,425
2019-05-27T08:06:59.007Z,435
2019-05-27T08:07:59.522Z,450
2019-05-27T08:09:11.319Z,430
2019-05-27T08:09:59.269Z,445
2019-05-27T08:11:11.835Z,370
2019-05-27T08:11:58.786Z,490
2019-05-27T08:13:07.365Z,310
2019-05-27T08:14:05.815Z,310
2019-05-27T08:14:59.074Z,315
2019-05-27T08:15:59.344Z,355
2019-05-27T08:17:14.523Z,490
2019-05-27T18:35:44.072Z,10
2019-05-27T18:36:43.989Z,10
2019-05-27T18:37:43.218Z,10
2019-05-27T18:38:43.698Z,10
2019-05-27T18:39:43.982Z,5
2019-05-27T18:40:45.059Z,5
2019-05-27T18:41:44.215Z,5
2019-05-27T18:42:44.256Z,5
2019-05-27T18:43:43.898Z,5
2019-05-27T18:44:47.246Z,5
2019-05-27T18:45:43.450Z,5
2019-05-27T18:46:43.713Z,5
2019-05-27T18:47:43.432Z,5
2019-05-27T18:48:43.795Z,5
2019-05-27T18:49:44.002Z,5
2019-05-27T18:50:43.993Z,5
2019-05-27T18:51:44.210Z,5
2019-05-27T18:52:44.228Z,5
2019-05-27T18:53:44.194Z,5
2019-05-27T18:54:46.761Z,5
2019-05-27T18:55:49.583Z,5
2019-05-27T18:56:43.947Z,0
2019-05-27T18:57:44.192Z,0
2019-05-27T18:58:43.962Z,0
2019-05-27T18:59:43.933Z,0
2019-05-27T19:00:49.653Z,0
2019-05-27T19:01:43.698Z,0
2019-05-27T19:02:44.697Z,0
2019-05-27T19:03:43.427Z,0
2019-05-27T19:04:43.698Z,0
2019-05-27T19:05:49.729Z,0
2019-05-27T19:06:47.245Z,0
2019-05-27T19:07:44.202Z,0
2019-05-27T19:08:43.952Z,0
2019-05-27T19:09:44.214Z,0
2019-05-27T19:10:43.455Z,0
2019-05-27T19:11:44.559Z,0
2019-05-27T19:12:43.957Z,0
2019-05-27T19:13:46.979Z,0
2019-05-27T19:14:43.434Z,0
2019-05-27T19:15:44.003Z,0
2019-05-27T19:16:50.130Z,0
2019-05-27T19:17:51.254Z,0
2019-05-27T19:18:43.515Z,0
2019-05-27T19:19:44.218Z,0
2019-05-27T19:20:43.957Z,0
2019-05-27T19:21:43.957Z,0
2019-05-27T19:22:43.977Z,0
2019-05-27T19:23:43.757Z,0
2019-05-27T19:24:45.875Z,0
2019-05-27T19:25:43.947Z,0
2019-05-27T19:26:44.350Z,0
2019-05-27T19:27:51.152Z,0
2019-05-27T19:28:50.332Z,0
2019-05-27T19:29:43.947Z,0
2019-05-27T19:30:46.517Z,0
2019-05-27T19:31:43.709Z,0
2019-05-27T19:32:44.734Z,0
2019-05-27T19:33:43.957Z,0
2019-05-27T19:34:43.706Z,0
2019-05-27T19:35:44.272Z,0
2019-05-27T19:36:43.985Z,0
2019-05-27T19:37:46.565Z,0
2019-05-27T19:38:44.866Z,0
2019-05-27T19:39:44.205Z,0
2019-05-27T19:40:43.695Z,0
2019-05-27T19:41:47.832Z,0
2019-05-27T19:42:43.698Z,0
2019-05-27T19:43:44.033Z,0
2019-05-27T19:44:43.981Z,0
2019-05-27T19:45:43.963Z,0
2019-05-27T19:46:44.217Z,0
2019-05-27T19:47:44.113Z,0
2019-05-27T19:48:47.760Z,0
2019-05-27T19:49:47.246Z,0
2019-05-27T19:50:46.626Z,0
2019-05-27T19:51:45.502Z,0
2019-05-27T19:52:43.993Z,0
2019-05-27T19:53:43.977Z,0
2019-05-27T19:54:47.787Z,0
2019-05-27T19:55:43.964Z,0
2019-05-27T19:56:43.768Z,0
2019-05-27T19:57:59.774Z,0
2019-05-27T19:58:57.906Z,0
2019-05-27T19:59:49.376Z,0
2019-05-27T20:00:46.728Z,0
2019-05-27T20:01:43.764Z,0
2019-05-27T20:02:43.990Z,0
2019-05-27T20:03:43.470Z,0
2019-05-27T20:04:43.962Z,0
2019-05-27T20:05:43.958Z,0
2019-05-27T20:06:43.749Z,0
2019-05-27T20:07:43.962Z,0
2019-05-27T20:08:44.021Z,0
2019-05-27T20:09:44.312Z,0
2019-05-27T20:10:46.750Z,0
2019-05-27T20:11:43.982Z,0
2019-05-27T20:12:43.954Z,0
2019-05-27T20:13:43.968Z,0
2019-05-27T20:14:44.880Z,0
2019-05-27T20:15:43.702Z,0
2019-05-27T20:16:46.375Z,0
2019-05-27T20:17:43.800Z,0
2019-05-27T20:18:43.697Z,0
2019-05-27T20:19:44.326Z,0
2019-05-27T20:20:46.755Z,0
2019-05-27T20:21:46.733Z,0
2019-05-27T20:22:43.715Z,0
2019-05-27T20:23:43.755Z,0
2019-05-27T20:24:44.022Z,0
2019-05-27T20:25:43.669Z,0
2019-05-27T20:26:44.215Z,0
2019-05-27T20:27:43.741Z,0
2019-05-27T20:28:44.274Z,0
2019-05-27T20:29:43.779Z,0
2019-05-27T20:30:43.969Z,0
2019-05-27T20:31:46.801Z,0
2019-05-27T20:32:47.073Z,0
2019-05-27T20:33:44.237Z,0
2019-05-27T20:34:43.794Z,0
2019-05-27T20:35:43.464Z,0
2019-05-27T20:36:44.222Z,0
2019-05-27T20:37:43.975Z,0
2019-05-27T20:38:43.501Z,0
2019-05-27T20:39:47.494Z,0
2019-05-27T20:40:43.434Z,0
2019-05-27T20:41:43.723Z,0
2019-05-27T20:42:50.029Z,0
2019-05-27T20:43:47.016Z,0
2019-05-27T20:44:43.740Z,0
2019-05-27T20:45:43.966Z,0
2019-05-27T20:46:44.192Z,0
2019-05-27T20:47:44.008Z,0
2019-05-27T20:48:43.429Z,0
2019-05-27T20:49:44.199Z,0
2019-05-27T20:50:43.445Z,0
2019-05-27T20:51:44.046Z,0
2019-05-27T20:52:45.144Z,0
2019-05-27T20:53:47.250Z,0
2019-05-27T20:54:43.956Z,0
2019-05-27T20:55:43.953Z,0
2019-05-27T20:56:43.432Z,0
2019-05-27T20:57:43.189Z,0
2019-05-27T20:58:43.680Z,0
2019-05-27T20:59:43.939Z,0
2019-05-27T21:00:43.160Z,0
2019-05-27T21:01:43.953Z,0
2019-05-27T21:02:44.027Z,0
2019-05-27T21:03:49.809Z,0
2019-05-27T21:04:45.352Z,0
2019-05-27T21:05:43.688Z,0
2019-05-27T21:06:43.685Z,0
2019-05-27T21:07:43.202Z,0
2019-05-27T21:08:43.711Z,0
2019-05-27T21:09:44.195Z,0
2019-05-27T21:10:43.939Z,0
2019-05-27T21:11:43.936Z,0
2019-05-27T21:12:43.683Z,0
2019-05-27T21:13:44.188Z,0
2019-05-27T21:14:46.538Z,0
2019-05-27T21:15:50.241Z,0
2019-05-27T21:16:43.930Z,0
2019-05-27T21:17:43.438Z,0
2019-05-27T21:18:43.923Z,0
2019-05-27T21:19:43.174Z,0
2019-05-27T21:20:44.371Z,0
2019-05-27T21:21:44.941Z,0
2019-05-27T21:22:43.765Z,0
2019-05-27T21:23:43.453Z,0
2019-05-27T21:24:43.974Z,0
2019-05-27T21:25:49.936Z,0
2019-05-27T21:26:46.704Z,0
2019-05-27T21:27:43.944Z,0
2019-05-27T21:28:50.182Z,0
2019-05-27T21:29:44.190Z,0
2019-05-27T21:30:45.651Z,0
2019-05-27T21:31:43.672Z,0
2019-05-27T21:32:50.373Z,0
2019-05-27T21:33:43.434Z,0
2019-05-27T21:34:44.183Z,0
2019-05-27T21:35:44.870Z,0
2019-05-27T21:36:47.288Z,0
2019-05-27T21:37:44.198Z,0
2019-05-27T21:38:43.983Z,0
2019-05-27T21:39:43.405Z,0
2019-05-27T21:40:44.187Z,0
2019-05-27T21:41:44.024Z,0
2019-05-27T21:42:43.961Z,0
2019-05-27T21:43:43.431Z,0
2019-05-27T21:44:43.942Z,0
2019-05-27T21:45:45.969Z,0
2019-05-27T21:46:47.265Z,0
2019-05-27T21:47:47.200Z,0
2019-05-27T21:48:43.899Z,0
2019-05-27T21:49:44.185Z,0
2019-05-27T21:50:43.904Z,0
2019-05-27T21:51:43.923Z,0
2019-05-27T21:52:43.893Z,0
2019-05-27T21:53:45.326Z,0
2019-05-27T21:54:43.936Z,0
2019-05-27T21:55:43.390Z,0
2019-05-27T21:56:43.404Z,0
2019-05-27T21:57:46.421Z,0
2019-05-27T21:58:59.571Z,0
2019-05-27T21:59:43.937Z,0
2019-05-27T22:00:44.191Z,0
2019-05-27T22:01:43.674Z,0
2019-05-27T22:02:43.890Z,0
2019-05-27T22:03:43.653Z,0
2019-05-27T22:04:46.479Z,0
2019-05-27T22:05:43.635Z,0
2019-05-27T22:06:44.192Z,0
2019-05-27T22:07:44.168Z,0
2019-05-27T22:08:49.909Z,0
2019-05-27T22:09:46.463Z,0
2019-05-27T22:10:43.622Z,0
2019-05-27T22:11:43.628Z,0
2019-05-27T22:12:43.940Z,0
2019-05-27T22:13:44.137Z,0
2019-05-27T22:14:43.929Z,0
2019-05-27T22:15:43.883Z,0
2019-05-27T22:16:43.884Z,0
2019-05-27T22:17:43.367Z,0
2019-05-27T22:18:45.050Z,0
2019-05-27T22:19:47.209Z,0
2019-05-27T22:20:43.949Z,0
2019-05-27T22:21:43.927Z,0
2019-05-27T22:22:43.634Z,0
2019-05-27T22:23:44.138Z,0
2019-05-27T22:24:44.228Z,0
2019-05-27T22:25:43.923Z,0
2019-05-27T22:26:43.894Z,0
2019-05-27T22:27:43.699Z,0
2019-05-27T22:28:43.875Z,0
2019-05-27T22:29:50.043Z,0
2019-05-27T22:30:46.940Z,0
2019-05-27T22:31:43.364Z,0
2019-05-27T22:32:43.371Z,0
2019-05-27T22:33:43.614Z,0
2019-05-27T22:34:44.243Z,0
2019-05-27T22:35:44.122Z,0
2019-05-27T22:36:44.125Z,0
2019-05-27T22:37:43.694Z,0
2019-05-27T22:38:43.632Z,0
2019-05-27T22:39:44.229Z,0
2019-05-27T22:40:46.889Z,0
2019-05-27T22:41:45.041Z,0
2019-05-27T22:42:43.362Z,0
2019-05-27T22:43:44.134Z,0
2019-05-27T22:44:43.921Z,0
2019-05-27T22:45:43.859Z,0
2019-05-27T22:46:43.603Z,0
2019-05-27T22:47:43.604Z,0
2019-05-27T22:48:43.883Z,0
2019-05-27T22:49:43.598Z,0
2019-05-27T22:50:43.879Z,0
2019-05-27T22:51:45.066Z,0
2019-05-27T22:52:47.140Z,0
2019-05-27T22:53:43.877Z,0
2019-05-27T22:54:43.911Z,0
2019-05-27T22:55:43.864Z,0
2019-05-27T22:56:43.845Z,0
2019-05-27T22:57:43.640Z,0
2019-05-27T22:58:43.850Z,0
2019-05-27T22:59:44.106Z,0
2019-05-27T23:00:43.911Z,0
2019-05-27T23:01:45.334Z,0
2019-05-27T23:02:46.625Z,0
2019-05-27T23:03:43.915Z,0
2019-05-27T23:04:44.204Z,0
2019-05-27T23:05:43.885Z,0
2019-05-27T23:06:44.102Z,0
2019-05-27T23:07:43.603Z,0
2019-05-27T23:08:44.122Z,0
2019-05-27T23:09:43.880Z,0
2019-05-27T23:10:43.575Z,0
2019-05-27T23:11:43.836Z,0
2019-05-27T23:12:46.938Z,0
2019-05-27T23:13:46.872Z,0
2019-05-27T23:14:43.850Z,0
2019-05-27T23:15:44.101Z,0
2019-05-27T23:16:43.581Z,0
2019-05-27T23:17:43.832Z,0
2019-05-27T23:18:43.567Z,0
2019-05-27T23:19:43.949Z,0
2019-05-27T23:20:43.827Z,0
2019-05-27T23:21:44.117Z,0
2019-05-27T23:22:43.645Z,0
2019-05-27T23:23:46.861Z,0
